Caddo River (Arkansas), Caddo Gap (07359610)

StateArkansasLatestLow (113 cfs)
RiverCaddo RiverRatingObservedEstimated
Updated2020-07-13 19:45 (29 minutes ago)Flood - The river is flooding. Obstacles can be treacherous or deadly. The river should be avoided at this stage for casual trips and definitely for the inexperienced. Trips should be attempted only with protective gear and equipment.Flood(none)916
Discharge113 cfs (median: 64 cfs)High - The river is high and potentially dangerous, especially for the young and / or inexperienced. Normal stream obstacles are sometimes difficult to navigate. Extended distances can be attempted, but canoe travel may not be advisable.High(none)314
Height5.23 feetGood - Conditions are ideal for a canoe or kayak. Boats typically will drag on fewer than one-quarter of riffles, if at all, and portages are unnecessary or rare. Normal float lengths can be attempted without a problem.Good(none)164
TrendSteady (falling over 24 hours)Low - River is low but can still be floated. Some riffles are okay but most come with significant dragging and might need a portage. Float lengths should be reduced to accommodate low flow, dragging, and portages.Low(none)104
USGSExternal icon USGS Site (External icon Google Maps)Poor - River is too low to float comfortably. Most or all riffles will drag or must be portaged and some obstacles (such as slick shelf rock) cause undue problems. Avoid the river at this stage for casual paddling trips.Poor(none)47

Trending Data

Plot Image

Trips for Caddo River (Arkansas), Caddo Gap (07359610)

DateStartEndDistanceConditionDischargeHeightFishingDetails
Click for details2017-11-12 Glenwood Caddo River Cabins Total trip distance: 3.3 miles3.3 Good 40 4.84 Fair KSB
LMB
SMB
KSB, LMB, SMB
Fillmore, Brian
Fillmore, Rebecca
Fillmore, Vivien
Javorsek, Rachel
Fillmore, Brian; Fillmore, Rebecca; Fillmore, Vivien; Javorsek, Rachel
Vivien's maiden voyage!Vivien's maiden voyage! USGS Gauge Data:
Caddo Gap (07359610)
Discharge: 40
Height: 4.84
<b>USGS Gauge Data:</b></br />Caddo Gap (07359610)<br />Discharge: 40<br />Height: 4.84
Source: FillmoreSource: Fillmore

A total of 1 rows are displayed.

Trip Summary for Caddo River (Arkansas), Caddo Gap (07359610)

Miles3.3
Trips1
People4
Dates1
Years1
Months1
Rows1
Sources1

Condition Descriptions

Fishing Conditions

Fish Species

Notes

Classic Trip List

The classic River Trips application is still available for use. It is updated with the new system using a data retrofit. It is no longer maintained. The original River Trips application is no longer updated (as of 1 Dec 2016) but can be checked for errors or for the condition of the data before it was converted to the new system.

Gauge Data Table

ObservationHeightDischargeMaximum
Discharge
Minimum
Discharge
Mean
Discharge
P05P10P20P25P50
(Median)
P75P80P90P95
2020-07-13 19:45 5.23 113 1790 (2007) 22 (2013) 124 26 30 47 50 64 88 91 103 950
2020-07-13 18:45 5.23 113 1790 (2007) 22 (2013) 124 26 30 47 50 64 88 91 103 950
2020-07-13 17:45 5.22 111 1790 (2007) 22 (2013) 124 26 30 47 50 64 88 91 103 950
2020-07-13 16:45 5.23 113 1790 (2007) 22 (2013) 124 26 30 47 50 64 88 91 103 950
2020-07-13 15:45 5.23 113 1790 (2007) 22 (2013) 124 26 30 47 50 64 88 91 103 950
2020-07-13 14:45 5.23 113 1790 (2007) 22 (2013) 124 26 30 47 50 64 88 91 103 950
2020-07-13 13:45 5.22 111 1790 (2007) 22 (2013) 124 26 30 47 50 64 88 91 103 950
2020-07-13 12:45 5.24 115 1790 (2007) 22 (2013) 124 26 30 47 50 64 88 91 103 950
2020-07-13 11:45 5.22 111 1790 (2007) 22 (2013) 124 26 30 47 50 64 88 91 103 950
2020-07-13 10:45 5.24 115 1790 (2007) 22 (2013) 124 26 30 47 50 64 88 91 103 950
2020-07-13 09:45 5.24 119 1790 (2007) 22 (2013) 124 26 30 47 50 64 88 91 103 950
2020-07-13 08:45 5.25 121 1790 (2007) 22 (2013) 124 26 30 47 50 64 88 91 103 950
2020-07-13 07:45 5.24 119 1790 (2007) 22 (2013) 124 26 30 47 50 64 88 91 103 950
2020-07-13 06:45 5.24 119 1790 (2007) 22 (2013) 124 26 30 47 50 64 88 91 103 950
2020-07-13 05:45 5.24 119 1790 (2007) 22 (2013) 124 26 30 47 50 64 88 91 103 950
2020-07-13 04:45 5.23 117 1790 (2007) 22 (2013) 124 26 30 47 50 64 88 91 103 950
2020-07-13 03:45 5.24 119 1790 (2007) 22 (2013) 124 26 30 47 50 64 88 91 103 950
2020-07-13 02:45 5.22 115 1790 (2007) 22 (2013) 124 26 30 47 50 64 88 91 103 950
2020-07-13 01:45 5.23 117 1790 (2007) 22 (2013) 124 26 30 47 50 64 88 91 103 950
2020-07-13 00:45 5.24 119 1790 (2007) 22 (2013) 124 26 30 47 50 64 88 91 103 950
2020-07-12 23:45 5.23 117 765 (2007) 28 (2012) 94 28 29 44 45 65 94 103 140 468
2020-07-12 22:45 5.22 115 765 (2007) 28 (2012) 94 28 29 44 45 65 94 103 140 468
2020-07-12 21:45 5.24 119 765 (2007) 28 (2012) 94 28 29 44 45 65 94 103 140 468
2020-07-12 20:45 5.25 121 765 (2007) 28 (2012) 94 28 29 44 45 65 94 103 140 468
2020-07-12 19:45 5.25 121 765 (2007) 28 (2012) 94 28 29 44 45 65 94 103 140 468
2020-07-12 18:45 5.24 119 765 (2007) 28 (2012) 94 28 29 44 45 65 94 103 140 468
2020-07-12 17:45 5.26 123 765 (2007) 28 (2012) 94 28 29 44 45 65 94 103 140 468
2020-07-12 16:45 5.26 123 765 (2007) 28 (2012) 94 28 29 44 45 65 94 103 140 468
2020-07-12 15:45 5.28 128 765 (2007) 28 (2012) 94 28 29 44 45 65 94 103 140 468
2020-07-12 14:45 5.27 126 765 (2007) 28 (2012) 94 28 29 44 45 65 94 103 140 468
2020-07-12 13:45 5.29 130 765 (2007) 28 (2012) 94 28 29 44 45 65 94 103 140 468
2020-07-12 12:45 5.28 128 765 (2007) 28 (2012) 94 28 29 44 45 65 94 103 140 468
2020-07-12 11:45 5.29 130 765 (2007) 28 (2012) 94 28 29 44 45 65 94 103 140 468
2020-07-12 10:45 5.29 130 765 (2007) 28 (2012) 94 28 29 44 45 65 94 103 140 468
2020-07-12 09:45 5.29 130 765 (2007) 28 (2012) 94 28 29 44 45 65 94 103 140 468
2020-07-12 08:45 5.30 132 765 (2007) 28 (2012) 94 28 29 44 45 65 94 103 140 468
2020-07-12 07:45 5.29 130 765 (2007) 28 (2012) 94 28 29 44 45 65 94 103 140 468
2020-07-12 06:45 5.30 132 765 (2007) 28 (2012) 94 28 29 44 45 65 94 103 140 468
2020-07-12 05:45 5.30 132 765 (2007) 28 (2012) 94 28 29 44 45 65 94 103 140 468
2020-07-12 04:45 5.30 132 765 (2007) 28 (2012) 94 28 29 44 45 65 94 103 140 468
2020-07-12 03:45 5.29 130 765 (2007) 28 (2012) 94 28 29 44 45 65 94 103 140 468
2020-07-12 02:45 5.30 132 765 (2007) 28 (2012) 94 28 29 44 45 65 94 103 140 468
2020-07-12 01:45 5.32 137 765 (2007) 28 (2012) 94 28 29 44 45 65 94 103 140 468
2020-07-12 00:45 5.31 135 765 (2007) 28 (2012) 94 28 29 44 45 65 94 103 140 468
2020-07-11 23:45 5.31 135 2460 (2007) 29 (2012) 159 30 33 43 46 66 91 119 189 1330
2020-07-11 22:45 5.32 137 2460 (2007) 29 (2012) 159 30 33 43 46 66 91 119 189 1330
2020-07-11 21:45 5.33 140 2460 (2007) 29 (2012) 159 30 33 43 46 66 91 119 189 1330
2020-07-11 20:45 5.32 137 2460 (2007) 29 (2012) 159 30 33 43 46 66 91 119 189 1330
2020-07-11 19:45 5.32 137 2460 (2007) 29 (2012) 159 30 33 43 46 66 91 119 189 1330
2020-07-11 18:45 5.33 140 2460 (2007) 29 (2012) 159 30 33 43 46 66 91 119 189 1330
2020-07-11 17:45 5.33 140 2460 (2007) 29 (2012) 159 30 33 43 46 66 91 119 189 1330
2020-07-11 16:45 5.35 145 2460 (2007) 29 (2012) 159 30 33 43 46 66 91 119 189 1330
2020-07-11 15:45 5.35 145 2460 (2007) 29 (2012) 159 30 33 43 46 66 91 119 189 1330
2020-07-11 14:45 5.36 147 2460 (2007) 29 (2012) 159 30 33 43 46 66 91 119 189 1330
2020-07-11 13:45 5.37 150 2460 (2007) 29 (2012) 159 30 33 43 46 66 91 119 189 1330
2020-07-11 12:45 5.37 150 2460 (2007) 29 (2012) 159 30 33 43 46 66 91 119 189 1330
2020-07-11 11:45 5.38 153 2460 (2007) 29 (2012) 159 30 33 43 46 66 91 119 189 1330
2020-07-11 10:45 5.38 153 2460 (2007) 29 (2012) 159 30 33 43 46 66 91 119 189 1330
2020-07-11 09:45 5.38 153 2460 (2007) 29 (2012) 159 30 33 43 46 66 91 119 189 1330
2020-07-11 08:45 5.37 150 2460 (2007) 29 (2012) 159 30 33 43 46 66 91 119 189 1330
2020-07-11 07:45 5.38 153 2460 (2007) 29 (2012) 159 30 33 43 46 66 91 119 189 1330
2020-07-11 06:45 5.40 158 2460 (2007) 29 (2012) 159 30 33 43 46 66 91 119 189 1330
2020-07-11 05:45 5.38 153 2460 (2007) 29 (2012) 159 30 33 43 46 66 91 119 189 1330
2020-07-11 04:45 5.38 153 2460 (2007) 29 (2012) 159 30 33 43 46 66 91 119 189 1330
2020-07-11 03:45 5.37 150 2460 (2007) 29 (2012) 159 30 33 43 46 66 91 119 189 1330
2020-07-11 02:45 5.39 155 2460 (2007) 29 (2012) 159 30 33 43 46 66 91 119 189 1330
2020-07-11 01:45 5.38 153 2460 (2007) 29 (2012) 159 30 33 43 46 66 91 119 189 1330
2020-07-11 00:45 5.40 158 2460 (2007) 29 (2012) 159 30 33 43 46 66 91 119 189 1330
2020-07-10 23:45 5.38 153 2260 (2007) 25 (2013) 154 29 34 40 44 66 82 114 200 1300
2020-07-10 22:45 5.38 153 2260 (2007) 25 (2013) 154 29 34 40 44 66 82 114 200 1300
2020-07-10 21:45 5.38 153 2260 (2007) 25 (2013) 154 29 34 40 44 66 82 114 200 1300
2020-07-10 20:45 5.38 153 2260 (2007) 25 (2013) 154 29 34 40 44 66 82 114 200 1300
2020-07-10 19:45 5.38 153 2260 (2007) 25 (2013) 154 29 34 40 44 66 82 114 200 1300
2020-07-10 18:45 5.40 158 2260 (2007) 25 (2013) 154 29 34 40 44 66 82 114 200 1300
2020-07-10 17:45 5.41 161 2260 (2007) 25 (2013) 154 29 34 40 44 66 82 114 200 1300
2020-07-10 16:45 5.45 173 2260 (2007) 25 (2013) 154 29 34 40 44 66 82 114 200 1300
2020-07-10 15:45 5.37 150 2260 (2007) 25 (2013) 154 29 34 40 44 66 82 114 200 1300
2020-07-10 14:45 5.37 150 2260 (2007) 25 (2013) 154 29 34 40 44 66 82 114 200 1300
2020-07-10 13:45 5.37 148 2260 (2007) 25 (2013) 154 29 34 40 44 66 82 114 200 1300
2020-07-10 12:45 5.39 153 2260 (2007) 25 (2013) 154 29 34 40 44 66 82 114 200 1300
2020-07-10 11:45 5.37 148 2260 (2007) 25 (2013) 154 29 34 40 44 66 82 114 200 1300
2020-07-10 10:45 5.39 153 2260 (2007) 25 (2013) 154 29 34 40 44 66 82 114 200 1300
2020-07-10 09:45 5.41 158 2260 (2007) 25 (2013) 154 29 34 40 44 66 82 114 200 1300
2020-07-10 08:45 5.40 156 2260 (2007) 25 (2013) 154 29 34 40 44 66 82 114 200 1300
2020-07-10 07:45 5.42 161 2260 (2007) 25 (2013) 154 29 34 40 44 66 82 114 200 1300
2020-07-10 06:45 5.41 158 2260 (2007) 25 (2013) 154 29 34 40 44 66 82 114 200 1300
2020-07-10 05:45 5.41 158 2260 (2007) 25 (2013) 154 29 34 40 44 66 82 114 200 1300
2020-07-10 04:45 5.41 158 2260 (2007) 25 (2013) 154 29 34 40 44 66 82 114 200 1300
2020-07-10 03:45 5.42 161 2260 (2007) 25 (2013) 154 29 34 40 44 66 82 114 200 1300
2020-07-10 02:45 5.44 166 2260 (2007) 25 (2013) 154 29 34 40 44 66 82 114 200 1300
2020-07-10 01:45 5.42 161 2260 (2007) 25 (2013) 154 29 34 40 44 66 82 114 200 1300
2020-07-10 00:45 5.43 164 2260 (2007) 25 (2013) 154 29 34 40 44 66 82 114 200 1300
2020-07-09 23:45 5.42 161 722 (2014) 24 (2013) 95 28 37 39 42 58 81 98 195 469
2020-07-09 22:45 5.44 166 722 (2014) 24 (2013) 95 28 37 39 42 58 81 98 195 469
2020-07-09 21:45 5.43 164 722 (2014) 24 (2013) 95 28 37 39 42 58 81 98 195 469
2020-07-09 20:45 5.42 161 722 (2014) 24 (2013) 95 28 37 39 42 58 81 98 195 469
2020-07-09 19:45 5.45 169 722 (2014) 24 (2013) 95 28 37 39 42 58 81 98 195 469
2020-07-09 18:45 5.44 166 722 (2014) 24 (2013) 95 28 37 39 42 58 81 98 195 469
2020-07-09 17:45 5.45 169 722 (2014) 24 (2013) 95 28 37 39 42 58 81 98 195 469
2020-07-09 16:45 5.46 172 722 (2014) 24 (2013) 95 28 37 39 42 58 81 98 195 469
2020-07-09 15:45 5.44 166 722 (2014) 24 (2013) 95 28 37 39 42 58 81 98 195 469
2020-07-09 14:45 5.45 169 722 (2014) 24 (2013) 95 28 37 39 42 58 81 98 195 469
2020-07-09 13:45 5.45 169 722 (2014) 24 (2013) 95 28 37 39 42 58 81 98 195 469
2020-07-09 12:45 5.46 172 722 (2014) 24 (2013) 95 28 37 39 42 58 81 98 195 469
2020-07-09 11:45 5.46 172 722 (2014) 24 (2013) 95 28 37 39 42 58 81 98 195 469
2020-07-09 10:45 5.45 169 722 (2014) 24 (2013) 95 28 37 39 42 58 81 98 195 469
2020-07-09 09:45 5.46 172 722 (2014) 24 (2013) 95 28 37 39 42 58 81 98 195 469
2020-07-09 08:45 5.47 175 722 (2014) 24 (2013) 95 28 37 39 42 58 81 98 195 469
2020-07-09 07:45 5.46 172 722 (2014) 24 (2013) 95 28 37 39 42 58 81 98 195 469
2020-07-09 06:45 5.48 177 722 (2014) 24 (2013) 95 28 37 39 42 58 81 98 195 469
2020-07-09 05:45 5.46 172 722 (2014) 24 (2013) 95 28 37 39 42 58 81 98 195 469
2020-07-09 04:45 5.47 175 722 (2014) 24 (2013) 95 28 37 39 42 58 81 98 195 469
2020-07-09 03:45 5.48 177 722 (2014) 24 (2013) 95 28 37 39 42 58 81 98 195 469
2020-07-09 02:45 5.47 175 722 (2014) 24 (2013) 95 28 37 39 42 58 81 98 195 469
2020-07-09 01:45 5.46 172 722 (2014) 24 (2013) 95 28 37 39 42 58 81 98 195 469
2020-07-09 00:45 5.48 177 722 (2014) 24 (2013) 95 28 37 39 42 58 81 98 195 469
2020-07-08 23:45 5.49 180 271 (1995) 28 (2013) 73 29 33 42 43 56 83 101 155 238
2020-07-08 22:45 5.50 183 271 (1995) 28 (2013) 73 29 33 42 43 56 83 101 155 238
2020-07-08 21:45 5.50 183 271 (1995) 28 (2013) 73 29 33 42 43 56 83 101 155 238
2020-07-08 20:45 5.51 186 271 (1995) 28 (2013) 73 29 33 42 43 56 83 101 155 238
2020-07-08 19:45 5.51 186 271 (1995) 28 (2013) 73 29 33 42 43 56 83 101 155 238
2020-07-08 18:45 5.50 183 271 (1995) 28 (2013) 73 29 33 42 43 56 83 101 155 238
2020-07-08 17:45 5.53 191 271 (1995) 28 (2013) 73 29 33 42 43 56 83 101 155 238
2020-07-08 16:45 5.51 186 271 (1995) 28 (2013) 73 29 33 42 43 56 83 101 155 238
2020-07-08 15:45 5.53 191 271 (1995) 28 (2013) 73 29 33 42 43 56 83 101 155 238
2020-07-08 14:45 5.54 194 271 (1995) 28 (2013) 73 29 33 42 43 56 83 101 155 238
2020-07-08 13:45 5.56 200 271 (1995) 28 (2013) 73 29 33 42 43 56 83 101 155 238
2020-07-08 12:45 5.58 205 271 (1995) 28 (2013) 73 29 33 42 43 56 83 101 155 238
2020-07-08 11:45 5.58 205 271 (1995) 28 (2013) 73 29 33 42 43 56 83 101 155 238
2020-07-08 10:45 5.62 217 271 (1995) 28 (2013) 73 29 33 42 43 56 83 101 155 238
2020-07-08 09:45 5.61 214 271 (1995) 28 (2013) 73 29 33 42 43 56 83 101 155 238
2020-07-08 08:45 5.59 208 271 (1995) 28 (2013) 73 29 33 42 43 56 83 101 155 238
2020-07-08 07:45 5.60 211 271 (1995) 28 (2013) 73 29 33 42 43 56 83 101 155 238
2020-07-08 06:45 5.63 220 271 (1995) 28 (2013) 73 29 33 42 43 56 83 101 155 238
2020-07-08 05:45 5.62 217 271 (1995) 28 (2013) 73 29 33 42 43 56 83 101 155 238
2020-07-08 04:45 5.65 225 271 (1995) 28 (2013) 73 29 33 42 43 56 83 101 155 238
2020-07-08 03:45 5.64 222 271 (1995) 28 (2013) 73 29 33 42 43 56 83 101 155 238
2020-07-08 02:45 5.63 220 271 (1995) 28 (2013) 73 29 33 42 43 56 83 101 155 238
2020-07-08 01:45 5.67 231 271 (1995) 28 (2013) 73 29 33 42 43 56 83 101 155 238
2020-07-08 00:45 5.68 234 271 (1995) 28 (2013) 73 29 33 42 43 56 83 101 155 238
2020-07-07 23:45 5.66 228 405 (1995) 22 (2012) 81 26 36 43 46 61 78 93 169 324
2020-07-07 22:45 5.64 222 405 (1995) 22 (2012) 81 26 36 43 46 61 78 93 169 324
2020-07-07 21:45 5.66 228 405 (1995) 22 (2012) 81 26 36 43 46 61 78 93 169 324
2020-07-07 20:45 5.63 220 405 (1995) 22 (2012) 81 26 36 43 46 61 78 93 169 324
2020-07-07 19:45 5.66 228 405 (1995) 22 (2012) 81 26 36 43 46 61 78 93 169 324
2020-07-07 18:45 5.65 225 405 (1995) 22 (2012) 81 26 36 43 46 61 78 93 169 324
2020-07-07 17:45 5.66 228 405 (1995) 22 (2012) 81 26 36 43 46 61 78 93 169 324
2020-07-07 16:45 5.67 231 405 (1995) 22 (2012) 81 26 36 43 46 61 78 93 169 324
2020-07-07 15:45 5.67 231 405 (1995) 22 (2012) 81 26 36 43 46 61 78 93 169 324
2020-07-07 14:45 5.69 237 405 (1995) 22 (2012) 81 26 36 43 46 61 78 93 169 324
2020-07-07 13:45 5.69 237 405 (1995) 22 (2012) 81 26 36 43 46 61 78 93 169 324
2020-07-07 12:45 5.67 231 405 (1995) 22 (2012) 81 26 36 43 46 61 78 93 169 324
2020-07-07 11:45 5.70 240 405 (1995) 22 (2012) 81 26 36 43 46 61 78 93 169 324
2020-07-07 10:45 5.72 246 405 (1995) 22 (2012) 81 26 36 43 46 61 78 93 169 324
2020-07-07 09:45 5.70 240 405 (1995) 22 (2012) 81 26 36 43 46 61 78 93 169 324
2020-07-07 08:45 5.72 246 405 (1995) 22 (2012) 81 26 36 43 46 61 78 93 169 324
2020-07-07 07:45 5.72 246 405 (1995) 22 (2012) 81 26 36 43 46 61 78 93 169 324
2020-07-07 06:45 5.72 246 405 (1995) 22 (2012) 81 26 36 43 46 61 78 93 169 324
2020-07-07 05:45 5.73 249 405 (1995) 22 (2012) 81 26 36 43 46 61 78 93 169 324
2020-07-07 04:45 5.74 252 405 (1995) 22 (2012) 81 26 36 43 46 61 78 93 169 324
2020-07-07 03:45 5.74 252 405 (1995) 22 (2012) 81 26 36 43 46 61 78 93 169 324
2020-07-07 02:45 5.75 255 405 (1995) 22 (2012) 81 26 36 43 46 61 78 93 169 324
2020-07-07 01:45 5.77 261 405 (1995) 22 (2012) 81 26 36 43 46 61 78 93 169 324
2020-07-07 00:45 5.79 267 405 (1995) 22 (2012) 81 26 36 43 46 61 78 93 169 324
2020-07-06 23:45 5.81 273 748 (1995) 18 (2012) 106 25 39 46 47 68 82 89 222 564
2020-07-06 22:45 5.80 270 748 (1995) 18 (2012) 106 25 39 46 47 68 82 89 222 564
2020-07-06 21:45 5.80 270 748 (1995) 18 (2012) 106 25 39 46 47 68 82 89 222 564
2020-07-06 20:45 5.75 255 748 (1995) 18 (2012) 106 25 39 46 47 68 82 89 222 564
2020-07-06 19:45 5.79 267 748 (1995) 18 (2012) 106 25 39 46 47 68 82 89 222 564
2020-07-06 18:45 5.80 270 748 (1995) 18 (2012) 106 25 39 46 47 68 82 89 222 564
2020-07-06 17:45 5.79 267 748 (1995) 18 (2012) 106 25 39 46 47 68 82 89 222 564
2020-07-06 16:45 5.83 279 748 (1995) 18 (2012) 106 25 39 46 47 68 82 89 222 564
2020-07-06 15:45 5.86 288 748 (1995) 18 (2012) 106 25 39 46 47 68 82 89 222 564
2020-07-06 14:45 5.88 294 748 (1995) 18 (2012) 106 25 39 46 47 68 82 89 222 564
2020-07-06 13:45 5.84 282 748 (1995) 18 (2012) 106 25 39 46 47 68 82 89 222 564
2020-07-06 12:45 5.88 294 748 (1995) 18 (2012) 106 25 39 46 47 68 82 89 222 564
2020-07-06 11:45 5.91 303 748 (1995) 18 (2012) 106 25 39 46 47 68 82 89 222 564
2020-07-06 10:45 5.93 310 748 (1995) 18 (2012) 106 25 39 46 47 68 82 89 222 564
2020-07-06 09:45 5.95 318 748 (1995) 18 (2012) 106 25 39 46 47 68 82 89 222 564
2020-07-06 08:45 5.95 318 748 (1995) 18 (2012) 106 25 39 46 47 68 82 89 222 564
2020-07-06 07:45 5.95 318 748 (1995) 18 (2012) 106 25 39 46 47 68 82 89 222 564
2020-07-06 06:45 5.97 327 748 (1995) 18 (2012) 106 25 39 46 47 68 82 89 222 564
2020-07-06 05:45 6.03 369 748 (1995) 18 (2012) 106 25 39 46 47 68 82 89 222 564
2020-07-06 04:45 6.05 385 748 (1995) 18 (2012) 106 25 39 46 47 68 82 89 222 564
2020-07-06 03:45 6.09 417 748 (1995) 18 (2012) 106 25 39 46 47 68 82 89 222 564
2020-07-06 02:45 6.14 459 748 (1995) 18 (2012) 106 25 39 46 47 68 82 89 222 564
2020-07-06 01:45 6.22 532 748 (1995) 18 (2012) 106 25 39 46 47 68 82 89 222 564
2020-07-06 00:45 6.32 633 748 (1995) 18 (2012) 106 25 39 46 47 68 82 89 222 564

A total of 188 rows are displayed for years 1989 through 2017.